sensor_id;sensor_type;location;lat;lon;timestamp;P1;durP1;ratioP1;P2;durP2;ratioP2
35835;SDS011;21955;50.580;7.228;2023-02-01T00:02:27;13.93;;;6.10;;
35835;SDS011;21955;50.580;7.228;2023-02-01T00:04:56;15.27;;;6.68;;
35835;SDS011;21955;50.580;7.228;2023-02-01T00:07:23;15.82;;;6.35;;
35835;SDS011;21955;50.580;7.228;2023-02-01T00:09:50;16.58;;;6.78;;
35835;SDS011;21955;50.580;7.228;2023-02-01T00:12:19;14.47;;;6.37;;
35835;SDS011;21955;50.580;7.228;2023-02-01T00:14:46;13.60;;;6.15;;
35835;SDS011;21955;50.580;7.228;2023-02-01T00:17:14;14.95;;;5.95;;
35835;SDS011;21955;50.580;7.228;2023-02-01T00:19:41;14.13;;;5.70;;
35835;SDS011;21955;50.580;7.228;2023-02-01T00:22:08;16.85;;;5.72;;
35835;SDS011;21955;50.580;7.228;2023-02-01T00:24:35;11.68;;;5.25;;
35835;SDS011;21955;50.580;7.228;2023-02-01T00:27:03;12.15;;;5.40;;
35835;SDS011;21955;50.580;7.228;2023-02-01T00:29:32;12.13;;;5.30;;
35835;SDS011;21955;50.580;7.228;2023-02-01T00:31:59;16.47;;;5.40;;
35835;SDS011;21955;50.580;7.228;2023-02-01T00:34:26;13.20;;;5.13;;
35835;SDS011;21955;50.580;7.228;2023-02-01T00:36:53;13.45;;;5.18;;
35835;SDS011;21955;50.580;7.228;2023-02-01T00:39:20;12.10;;;5.00;;
35835;SDS011;21955;50.580;7.228;2023-02-01T00:41:48;13.15;;;5.55;;
35835;SDS011;21955;50.580;7.228;2023-02-01T00:44:15;15.95;;;5.15;;
35835;SDS011;21955;50.580;7.228;2023-02-01T00:46:44;13.87;;;5.10;;
35835;SDS011;21955;50.580;7.228;2023-02-01T00:49:11;15.57;;;4.95;;
35835;SDS011;21955;50.580;7.228;2023-02-01T00:51:39;11.88;;;4.80;;
35835;SDS011;21955;50.580;7.228;2023-02-01T00:54:06;14.60;;;5.00;;
35835;SDS011;21955;50.580;7.228;2023-02-01T00:56:33;9.35;;;4.35;;
35835;SDS011;21955;50.580;7.228;2023-02-01T00:59:00;11.27;;;4.30;;
35835;SDS011;21955;50.580;7.228;2023-02-01T01:01:28;12.45;;;4.45;;
35835;SDS011;21955;50.580;7.228;2023-02-01T01:03:59;13.47;;;4.57;;
35835;SDS011;21955;50.580;7.228;2023-02-01T01:06:27;14.95;;;4.38;;
35835;SDS011;21955;50.580;7.228;2023-02-01T01:08:56;14.48;;;5.40;;
35835;SDS011;21955;50.580;7.228;2023-02-01T01:11:24;13.85;;;4.80;;
35835;SDS011;21955;50.580;7.228;2023-02-01T01:13:52;11.88;;;4.22;;
35835;SDS011;21955;50.580;7.228;2023-02-01T01:16:20;11.50;;;3.80;;
35835;SDS011;21955;50.580;7.228;2023-02-01T01:18:47;13.25;;;3.83;;
35835;SDS011;21955;50.580;7.228;2023-02-01T01:21:16;9.53;;;3.23;;
35835;SDS011;21955;50.580;7.228;2023-02-01T01:23:44;11.73;;;3.53;;
35835;SDS011;21955;50.580;7.228;2023-02-01T01:26:12;12.90;;;3.43;;
35835;SDS011;21955;50.580;7.228;2023-02-01T01:28:40;13.27;;;3.40;;
35835;SDS011;21955;50.580;7.228;2023-02-01T01:31:07;14.32;;;3.00;;
35835;SDS011;21955;50.580;7.228;2023-02-01T01:33:35;11.95;;;3.08;;
35835;SDS011;21955;50.580;7.228;2023-02-01T01:36:04;10.40;;;3.20;;
35835;SDS011;21955;50.580;7.228;2023-02-01T01:38:34;10.27;;;3.40;;
35835;SDS011;21955;50.580;7.228;2023-02-01T01:41:01;11.40;;;3.10;;
35835;SDS011;21955;50.580;7.228;2023-02-01T01:43:44;13.73;;;3.22;;
35835;SDS011;21955;50.580;7.228;2023-02-01T01:48:56;11.57;;;3.05;;
35835;SDS011;21955;50.580;7.228;2023-02-01T01:51:25;13.07;;;3.43;;
35835;SDS011;21955;50.580;7.228;2023-02-01T01:53:58;13.77;;;3.30;;
35835;SDS011;21955;50.580;7.228;2023-02-01T01:56:27;12.40;;;3.00;;
35835;SDS011;21955;50.580;7.228;2023-02-01T01:58:55;13.13;;;2.88;;
35835;SDS011;21955;50.580;7.228;2023-02-01T02:01:23;12.33;;;2.93;;
35835;SDS011;21955;50.580;7.228;2023-02-01T02:03:50;11.95;;;2.92;;
35835;SDS011;21955;50.580;7.228;2023-02-01T02:06:22;11.27;;;2.72;;
35835;SDS011;21955;50.580;7.228;2023-02-01T02:08:53;12.27;;;2.80;;
35835;SDS011;21955;50.580;7.228;2023-02-01T02:11:22;9.25;;;3.10;;
35835;SDS011;21955;50.580;7.228;2023-02-01T02:13:50;12.07;;;3.10;;
35835;SDS011;21955;50.580;7.228;2023-02-01T02:16:27;14.13;;;2.90;;
35835;SDS011;21955;50.580;7.228;2023-02-01T02:19:04;12.93;;;3.10;;
35835;SDS011;21955;50.580;7.228;2023-02-01T02:21:46;16.17;;;3.13;;
35835;SDS011;21955;50.580;7.228;2023-02-01T02:24:34;15.45;;;3.20;;
35835;SDS011;21955;50.580;7.228;2023-02-01T02:29:59;13.63;;;3.05;;
35835;SDS011;21955;50.580;7.228;2023-02-01T02:35:28;14.45;;;2.90;;
35835;SDS011;21955;50.580;7.228;2023-02-01T02:38:00;12.43;;;3.40;;
35835;SDS011;21955;50.580;7.228;2023-02-01T02:40:31;15.82;;;3.45;;
35835;SDS011;21955;50.580;7.228;2023-02-01T02:43:01;14.02;;;3.30;;
35835;SDS011;21955;50.580;7.228;2023-02-01T02:45:49;13.35;;;3.05;;
35835;SDS011;21955;50.580;7.228;2023-02-01T02:48:37;14.77;;;3.60;;
35835;SDS011;21955;50.580;7.228;2023-02-01T02:51:11;12.48;;;3.00;;
35835;SDS011;21955;50.580;7.228;2023-02-01T02:53:59;15.05;;;3.58;;
35835;SDS011;21955;50.580;7.228;2023-02-01T02:56:45;16.67;;;3.70;;
35835;SDS011;21955;50.580;7.228;2023-02-01T02:59:30;12.13;;;3.63;;
35835;SDS011;21955;50.580;7.228;2023-02-01T03:02:16;16.88;;;3.90;;
35835;SDS011;21955;50.580;7.228;2023-02-01T03:05:02;15.48;;;3.40;;
35835;SDS011;21955;50.580;7.228;2023-02-01T03:07:49;12.73;;;3.63;;
35835;SDS011;21955;50.580;7.228;2023-02-01T03:10:23;14.90;;;3.40;;
35835;SDS011;21955;50.580;7.228;2023-02-01T03:12:51;14.57;;;3.22;;
35835;SDS011;21955;50.580;7.228;2023-02-01T03:15:21;14.27;;;3.40;;
35835;SDS011;21955;50.580;7.228;2023-02-01T03:17:51;15.93;;;3.20;;
35835;SDS011;21955;50.580;7.228;2023-02-01T03:20:19;13.65;;;2.92;;
35835;SDS011;21955;50.580;7.228;2023-02-01T03:22:48;15.85;;;3.10;;
35835;SDS011;21955;50.580;7.228;2023-02-01T03:25:17;13.63;;;3.13;;
35835;SDS011;21955;50.580;7.228;2023-02-01T03:27:47;13.60;;;3.28;;
35835;SDS011;21955;50.580;7.228;2023-02-01T03:30:17;13.13;;;2.90;;
35835;SDS011;21955;50.580;7.228;2023-02-01T03:32:47;13.48;;;3.10;;
35835;SDS011;21955;50.580;7.228;2023-02-01T03:35:26;14.65;;;3.20;;
35835;SDS011;21955;50.580;7.228;2023-02-01T03:37:59;15.80;;;3.22;;
35835;SDS011;21955;50.580;7.228;2023-02-01T03:40:28;13.20;;;3.13;;
35835;SDS011;21955;50.580;7.228;2023-02-01T03:42:58;12.52;;;3.60;;
35835;SDS011;21955;50.580;7.228;2023-02-01T03:45:27;15.15;;;3.00;;
35835;SDS011;21955;50.580;7.228;2023-02-01T03:47:56;12.55;;;3.20;;
35835;SDS011;21955;50.580;7.228;2023-02-01T03:50:26;10.63;;;2.90;;
35835;SDS011;21955;50.580;7.228;2023-02-01T03:52:56;14.27;;;3.08;;
35835;SDS011;21955;50.580;7.228;2023-02-01T03:55:30;13.77;;;2.80;;
35835;SDS011;21955;50.580;7.228;2023-02-01T03:58:03;13.70;;;3.15;;
35835;SDS011;21955;50.580;7.228;2023-02-01T04:00:32;12.05;;;3.17;;
35835;SDS011;21955;50.580;7.228;2023-02-01T04:02:59;17.73;;;3.60;;
35835;SDS011;21955;50.580;7.228;2023-02-01T04:05:26;14.63;;;2.90;;
35835;SDS011;21955;50.580;7.228;2023-02-01T04:07:55;13.50;;;3.28;;
35835;SDS011;21955;50.580;7.228;2023-02-01T04:10:22;13.40;;;2.88;;
35835;SDS011;21955;50.580;7.228;2023-02-01T04:12:51;13.35;;;2.90;;
35835;SDS011;21955;50.580;7.228;2023-02-01T04:15:18;15.25;;;3.30;;
35835;SDS011;21955;50.580;7.228;2023-02-01T04:17:46;11.60;;;3.28;;
35835;SDS011;21955;50.580;7.228;2023-02-01T04:20:13;15.75;;;3.03;;
35835;SDS011;21955;50.580;7.228;2023-02-01T04:22:41;20.20;;;3.50;;
35835;SDS011;21955;50.580;7.228;2023-02-01T04:25:17;13.13;;;3.42;;
35835;SDS011;21955;50.580;7.228;2023-02-01T04:27:44;15.55;;;3.00;;
35835;SDS011;21955;50.580;7.228;2023-02-01T04:30:16;15.77;;;3.40;;
35835;SDS011;21955;50.580;7.228;2023-02-01T04:32:44;17.73;;;3.55;;
35835;SDS011;21955;50.580;7.228;2023-02-01T04:35:11;15.45;;;3.53;;
35835;SDS011;21955;50.580;7.228;2023-02-01T04:37:39;21.13;;;4.35;;
35835;SDS011;21955;50.580;7.228;2023-02-01T04:40:10;14.88;;;3.78;;
35835;SDS011;21955;50.580;7.228;2023-02-01T04:42:37;19.55;;;4.20;;
35835;SDS011;21955;50.580;7.228;2023-02-01T04:45:05;19.00;;;4.13;;
35835;SDS011;21955;50.580;7.228;2023-02-01T04:47:35;16.50;;;4.15;;
35835;SDS011;21955;50.580;7.228;2023-02-01T04:50:02;16.80;;;4.30;;
35835;SDS011;21955;50.580;7.228;2023-02-01T04:52:33;18.55;;;4.25;;
35835;SDS011;21955;50.580;7.228;2023-02-01T04:55:01;18.10;;;4.57;;
35835;SDS011;21955;50.580;7.228;2023-02-01T04:57:28;14.00;;;4.13;;
35835;SDS011;21955;50.580;7.228;2023-02-01T04:59:55;18.50;;;4.45;;
35835;SDS011;21955;50.580;7.228;2023-02-01T05:02:22;21.90;;;4.60;;
35835;SDS011;21955;50.580;7.228;2023-02-01T05:04:51;17.58;;;4.00;;
35835;SDS011;21955;50.580;7.228;2023-02-01T05:07:19;16.80;;;3.67;;
35835;SDS011;21955;50.580;7.228;2023-02-01T05:09:46;15.82;;;3.53;;
35835;SDS011;21955;50.580;7.228;2023-02-01T05:12:14;14.80;;;3.97;;
35835;SDS011;21955;50.580;7.228;2023-02-01T05:14:59;15.52;;;3.80;;
35835;SDS011;21955;50.580;7.228;2023-02-01T05:17:26;16.83;;;3.92;;
35835;SDS011;21955;50.580;7.228;2023-02-01T05:19:55;17.30;;;4.22;;
35835;SDS011;21955;50.580;7.228;2023-02-01T05:22:22;15.90;;;3.63;;
35835;SDS011;21955;50.580;7.228;2023-02-01T05:24:50;16.95;;;3.67;;
35835;SDS011;21955;50.580;7.228;2023-02-01T05:27:17;18.13;;;3.47;;
35835;SDS011;21955;50.580;7.228;2023-02-01T05:29:44;16.08;;;3.25;;
35835;SDS011;21955;50.580;7.228;2023-02-01T05:32:11;15.00;;;3.30;;
35835;SDS011;21955;50.580;7.228;2023-02-01T05:34:39;11.65;;;3.42;;
35835;SDS011;21955;50.580;7.228;2023-02-01T05:37:08;12.48;;;3.03;;
35835;SDS011;21955;50.580;7.228;2023-02-01T05:39:38;13.93;;;3.45;;
35835;SDS011;21955;50.580;7.228;2023-02-01T05:42:06;17.73;;;3.30;;
35835;SDS011;21955;50.580;7.228;2023-02-01T05:44:33;15.40;;;3.10;;
35835;SDS011;21955;50.580;7.228;2023-02-01T05:47:00;12.07;;;2.80;;
35835;SDS011;21955;50.580;7.228;2023-02-01T05:49:27;10.65;;;2.78;;
35835;SDS011;21955;50.580;7.228;2023-02-01T05:51:55;14.57;;;2.88;;
35835;SDS011;21955;50.580;7.228;2023-02-01T05:54:23;15.38;;;2.95;;
35835;SDS011;21955;50.580;7.228;2023-02-01T05:56:51;14.32;;;2.90;;
35835;SDS011;21955;50.580;7.228;2023-02-01T05:59:18;11.93;;;2.60;;
35835;SDS011;21955;50.580;7.228;2023-02-01T06:01:46;18.00;;;3.17;;
35835;SDS011;21955;50.580;7.228;2023-02-01T06:04:13;11.30;;;2.87;;
35835;SDS011;21955;50.580;7.228;2023-02-01T06:06:41;16.02;;;2.90;;
35835;SDS011;21955;50.580;7.228;2023-02-01T06:09:08;15.33;;;2.87;;
35835;SDS011;21955;50.580;7.228;2023-02-01T06:11:37;10.25;;;2.78;;
35835;SDS011;21955;50.580;7.228;2023-02-01T06:14:05;13.23;;;3.08;;
35835;SDS011;21955;50.580;7.228;2023-02-01T06:16:32;15.98;;;2.90;;
35835;SDS011;21955;50.580;7.228;2023-02-01T06:19:00;12.73;;;2.80;;
35835;SDS011;21955;50.580;7.228;2023-02-01T06:21:27;13.82;;;2.72;;
35835;SDS011;21955;50.580;7.228;2023-02-01T06:23:54;14.73;;;2.65;;
35835;SDS011;21955;50.580;7.228;2023-02-01T06:26:22;16.73;;;3.25;;
35835;SDS011;21955;50.580;7.228;2023-02-01T06:28:51;14.65;;;3.28;;
35835;SDS011;21955;50.580;7.228;2023-02-01T06:31:18;14.75;;;2.70;;
35835;SDS011;21955;50.580;7.228;2023-02-01T06:33:46;15.48;;;2.63;;
35835;SDS011;21955;50.580;7.228;2023-02-01T06:36:14;16.20;;;3.30;;
35835;SDS011;21955;50.580;7.228;2023-02-01T06:38:43;14.27;;;2.90;;
35835;SDS011;21955;50.580;7.228;2023-02-01T06:41:10;19.48;;;3.70;;
35835;SDS011;21955;50.580;7.228;2023-02-01T06:43:38;16.33;;;3.40;;
35835;SDS011;21955;50.580;7.228;2023-02-01T06:46:06;16.20;;;3.67;;
35835;SDS011;21955;50.580;7.228;2023-02-01T06:48:34;16.60;;;3.28;;
35835;SDS011;21955;50.580;7.228;2023-02-01T06:51:04;16.98;;;3.40;;
35835;SDS011;21955;50.580;7.228;2023-02-01T06:53:32;12.80;;;3.10;;
35835;SDS011;21955;50.580;7.228;2023-02-01T06:56:00;13.57;;;3.08;;
35835;SDS011;21955;50.580;7.228;2023-02-01T06:58:28;13.65;;;3.05;;
35835;SDS011;21955;50.580;7.228;2023-02-01T07:00:56;17.13;;;3.13;;
35835;SDS011;21955;50.580;7.228;2023-02-01T07:03:24;13.40;;;3.13;;
35835;SDS011;21955;50.580;7.228;2023-02-01T07:05:54;17.35;;;3.28;;
35835;SDS011;21955;50.580;7.228;2023-02-01T07:08:23;16.02;;;3.30;;
35835;SDS011;21955;50.580;7.228;2023-02-01T07:10:50;13.40;;;3.20;;
35835;SDS011;21955;50.580;7.228;2023-02-01T07:13:18;18.05;;;3.70;;
35835;SDS011;21955;50.580;7.228;2023-02-01T07:15:45;16.20;;;3.60;;
35835;SDS011;21955;50.580;7.228;2023-02-01T07:18:13;14.07;;;3.55;;
35835;SDS011;21955;50.580;7.228;2023-02-01T07:20:42;12.68;;;3.40;;
35835;SDS011;21955;50.580;7.228;2023-02-01T07:23:09;12.77;;;3.45;;
35835;SDS011;21955;50.580;7.228;2023-02-01T07:25:37;18.70;;;4.03;;
35835;SDS011;21955;50.580;7.228;2023-02-01T07:28:04;18.27;;;4.20;;
35835;SDS011;21955;50.580;7.228;2023-02-01T07:30:31;15.18;;;3.97;;
35835;SDS011;21955;50.580;7.228;2023-02-01T07:32:59;19.55;;;3.40;;
35835;SDS011;21955;50.580;7.228;2023-02-01T07:35:26;11.95;;;3.38;;
35835;SDS011;21955;50.580;7.228;2023-02-01T07:37:56;15.75;;;3.17;;
35835;SDS011;21955;50.580;7.228;2023-02-01T07:40:24;15.97;;;3.40;;
35835;SDS011;21955;50.580;7.228;2023-02-01T07:42:55;14.10;;;3.30;;
35835;SDS011;21955;50.580;7.228;2023-02-01T07:45:23;13.05;;;3.67;;
35835;SDS011;21955;50.580;7.228;2023-02-01T07:47:51;16.30;;;3.70;;
35835;SDS011;21955;50.580;7.228;2023-02-01T07:50:19;13.98;;;3.15;;
35835;SDS011;21955;50.580;7.228;2023-02-01T07:52:49;12.93;;;2.90;;
35835;SDS011;21955;50.580;7.228;2023-02-01T07:55:20;16.60;;;3.42;;
35835;SDS011;21955;50.580;7.228;2023-02-01T07:57:47;15.57;;;3.63;;
35835;SDS011;21955;50.580;7.228;2023-02-01T08:00:15;17.30;;;3.88;;
35835;SDS011;21955;50.580;7.228;2023-02-01T08:03:00;17.45;;;3.53;;
35835;SDS011;21955;50.580;7.228;2023-02-01T08:05:28;15.43;;;3.42;;
35835;SDS011;21955;50.580;7.228;2023-02-01T08:07:55;13.50;;;3.10;;
35835;SDS011;21955;50.580;7.228;2023-02-01T08:10:24;13.73;;;3.17;;
35835;SDS011;21955;50.580;7.228;2023-02-01T08:12:52;14.20;;;3.40;;
35835;SDS011;21955;50.580;7.228;2023-02-01T08:15:25;13.50;;;3.00;;
35835;SDS011;21955;50.580;7.228;2023-02-01T08:17:53;13.65;;;3.00;;
35835;SDS011;21955;50.580;7.228;2023-02-01T08:20:20;16.27;;;3.30;;
35835;SDS011;21955;50.580;7.228;2023-02-01T08:22:48;15.57;;;3.25;;
35835;SDS011;21955;50.580;7.228;2023-02-01T08:25:16;15.10;;;3.08;;
35835;SDS011;21955;50.580;7.228;2023-02-01T08:27:46;18.38;;;3.75;;
35835;SDS011;21955;50.580;7.228;2023-02-01T08:30:15;16.83;;;3.38;;
35835;SDS011;21955;50.580;7.228;2023-02-01T08:32:43;16.33;;;3.00;;
35835;SDS011;21955;50.580;7.228;2023-02-01T08:35:10;15.15;;;3.30;;
35835;SDS011;21955;50.580;7.228;2023-02-01T08:37:39;17.77;;;3.58;;
35835;SDS011;21955;50.580;7.228;2023-02-01T08:40:06;19.03;;;4.00;;
35835;SDS011;21955;50.580;7.228;2023-02-01T08:42:34;13.35;;;2.78;;
35835;SDS011;21955;50.580;7.228;2023-02-01T08:45:18;15.32;;;3.60;;
35835;SDS011;21955;50.580;7.228;2023-02-01T08:47:46;12.02;;;3.35;;
35835;SDS011;21955;50.580;7.228;2023-02-01T08:50:14;16.50;;;3.55;;
35835;SDS011;21955;50.580;7.228;2023-02-01T08:52:42;14.88;;;3.10;;
35835;SDS011;21955;50.580;7.228;2023-02-01T08:55:09;16.85;;;3.30;;
35835;SDS011;21955;50.580;7.228;2023-02-01T08:57:37;17.00;;;3.23;;
35835;SDS011;21955;50.580;7.228;2023-02-01T09:00:05;13.02;;;3.28;;
35835;SDS011;21955;50.580;7.228;2023-02-01T09:02:35;14.45;;;2.90;;
35835;SDS011;21955;50.580;7.228;2023-02-01T09:05:02;12.73;;;3.03;;
35835;SDS011;21955;50.580;7.228;2023-02-01T09:07:30;19.17;;;3.28;;
35835;SDS011;21955;50.580;7.228;2023-02-01T09:10:00;15.15;;;3.22;;
35835;SDS011;21955;50.580;7.228;2023-02-01T09:12:29;13.63;;;2.90;;
35835;SDS011;21955;50.580;7.228;2023-02-01T09:15:00;14.68;;;3.10;;
35835;SDS011;21955;50.580;7.228;2023-02-01T09:17:29;15.88;;;3.20;;
35835;SDS011;21955;50.580;7.228;2023-02-01T09:19:58;12.43;;;2.50;;
35835;SDS011;21955;50.580;7.228;2023-02-01T09:22:25;16.10;;;2.67;;
35835;SDS011;21955;50.580;7.228;2023-02-01T09:24:52;12.20;;;2.70;;
35835;SDS011;21955;50.580;7.228;2023-02-01T09:27:20;17.08;;;2.80;;
35835;SDS011;21955;50.580;7.228;2023-02-01T09:29:47;17.73;;;2.95;;
35835;SDS011;21955;50.580;7.228;2023-02-01T09:32:17;13.95;;;2.70;;
35835;SDS011;21955;50.580;7.228;2023-02-01T09:34:45;16.58;;;2.88;;
35835;SDS011;21955;50.580;7.228;2023-02-01T09:37:14;18.17;;;3.80;;
35835;SDS011;21955;50.580;7.228;2023-02-01T09:39:41;13.67;;;3.27;;
35835;SDS011;21955;50.580;7.228;2023-02-01T09:42:15;17.23;;;3.50;;
35835;SDS011;21955;50.580;7.228;2023-02-01T09:44:56;16.58;;;3.75;;
35835;SDS011;21955;50.580;7.228;2023-02-01T09:47:26;19.30;;;2.93;;
35835;SDS011;21955;50.580;7.228;2023-02-01T09:49:55;13.27;;;2.88;;
35835;SDS011;21955;50.580;7.228;2023-02-01T09:52:25;14.40;;;3.17;;
35835;SDS011;21955;50.580;7.228;2023-02-01T09:54:55;14.15;;;3.45;;
35835;SDS011;21955;50.580;7.228;2023-02-01T09:57:28;14.35;;;3.25;;
35835;SDS011;21955;50.580;7.228;2023-02-01T10:00:03;13.57;;;2.88;;
35835;SDS011;21955;50.580;7.228;2023-02-01T10:02:32;15.15;;;2.70;;
35835;SDS011;21955;50.580;7.228;2023-02-01T10:05:03;15.10;;;3.15;;
35835;SDS011;21955;50.580;7.228;2023-02-01T10:07:34;11.38;;;2.55;;
35835;SDS011;21955;50.580;7.228;2023-02-01T10:10:03;16.90;;;2.60;;
35835;SDS011;21955;50.580;7.228;2023-02-01T10:12:48;10.38;;;2.80;;
35835;SDS011;21955;50.580;7.228;2023-02-01T10:15:30;13.53;;;2.63;;
35835;SDS011;21955;50.580;7.228;2023-02-01T10:18:07;13.43;;;2.38;;
35835;SDS011;21955;50.580;7.228;2023-02-01T10:20:41;12.40;;;2.17;;
35835;SDS011;21955;50.580;7.228;2023-02-01T10:23:17;14.52;;;2.83;;
35835;SDS011;21955;50.580;7.228;2023-02-01T10:25:51;14.40;;;2.65;;
35835;SDS011;21955;50.580;7.228;2023-02-01T10:28:23;11.82;;;2.47;;
35835;SDS011;21955;50.580;7.228;2023-02-01T10:30:52;13.85;;;2.50;;
35835;SDS011;21955;50.580;7.228;2023-02-01T10:33:23;12.93;;;2.58;;
35835;SDS011;21955;50.580;7.228;2023-02-01T10:35:52;11.75;;;2.20;;
35835;SDS011;21955;50.580;7.228;2023-02-01T10:38:24;14.10;;;2.38;;
35835;SDS011;21955;50.580;7.228;2023-02-01T10:40:52;16.15;;;2.65;;
35835;SDS011;21955;50.580;7.228;2023-02-01T10:43:20;9.73;;;2.30;;
35835;SDS011;21955;50.580;7.228;2023-02-01T10:45:48;13.68;;;2.47;;
35835;SDS011;21955;50.580;7.228;2023-02-01T10:48:17;11.05;;;2.63;;
35835;SDS011;21955;50.580;7.228;2023-02-01T10:50:46;12.10;;;2.47;;
35835;SDS011;21955;50.580;7.228;2023-02-01T10:53:17;13.68;;;2.58;;
35835;SDS011;21955;50.580;7.228;2023-02-01T10:55:48;12.85;;;2.38;;
35835;SDS011;21955;50.580;7.228;2023-02-01T10:58:16;13.40;;;2.65;;
35835;SDS011;21955;50.580;7.228;2023-02-01T11:00:46;16.70;;;2.80;;
35835;SDS011;21955;50.580;7.228;2023-02-01T11:06:03;12.38;;;2.47;;
35835;SDS011;21955;50.580;7.228;2023-02-01T11:08:42;13.93;;;2.57;;
35835;SDS011;21955;50.580;7.228;2023-02-01T11:11:11;13.45;;;2.65;;
35835;SDS011;21955;50.580;7.228;2023-02-01T11:13:39;13.07;;;2.40;;
35835;SDS011;21955;50.580;7.228;2023-02-01T11:16:09;12.20;;;2.70;;
35835;SDS011;21955;50.580;7.228;2023-02-01T11:18:38;12.32;;;2.80;;
35835;SDS011;21955;50.580;7.228;2023-02-01T11:21:06;10.40;;;2.40;;
35835;SDS011;21955;50.580;7.228;2023-02-01T11:23:38;10.38;;;2.20;;
35835;SDS011;21955;50.580;7.228;2023-02-01T11:26:09;12.32;;;2.40;;
35835;SDS011;21955;50.580;7.228;2023-02-01T11:28:39;13.10;;;2.58;;
35835;SDS011;21955;50.580;7.228;2023-02-01T11:31:08;10.52;;;2.00;;
35835;SDS011;21955;50.580;7.228;2023-02-01T11:33:37;11.80;;;2.47;;
35835;SDS011;21955;50.580;7.228;2023-02-01T11:36:08;9.82;;;2.13;;
35835;SDS011;21955;50.580;7.228;2023-02-01T11:38:38;10.45;;;2.30;;
35835;SDS011;21955;50.580;7.228;2023-02-01T11:41:12;11.60;;;2.35;;
35835;SDS011;21955;50.580;7.228;2023-02-01T11:43:51;12.13;;;2.67;;
35835;SDS011;21955;50.580;7.228;2023-02-01T11:46:20;11.93;;;2.38;;
35835;SDS011;21955;50.580;7.228;2023-02-01T11:48:50;11.43;;;2.17;;
35835;SDS011;21955;50.580;7.228;2023-02-01T11:51:21;10.93;;;2.33;;
35835;SDS011;21955;50.580;7.228;2023-02-01T11:53:59;13.07;;;2.65;;
35835;SDS011;21955;50.580;7.228;2023-02-01T11:56:31;11.65;;;2.25;;
35835;SDS011;21955;50.580;7.228;2023-02-01T11:59:05;11.95;;;2.45;;
35835;SDS011;21955;50.580;7.228;2023-02-01T12:01:46;7.72;;;2.25;;
35835;SDS011;21955;50.580;7.228;2023-02-01T12:04:30;8.20;;;2.25;;
35835;SDS011;21955;50.580;7.228;2023-02-01T12:07:03;8.77;;;2.45;;
35835;SDS011;21955;50.580;7.228;2023-02-01T12:09:37;11.45;;;2.50;;
35835;SDS011;21955;50.580;7.228;2023-02-01T12:12:13;11.68;;;2.30;;
35835;SDS011;21955;50.580;7.228;2023-02-01T12:14:54;11.60;;;2.50;;
35835;SDS011;21955;50.580;7.228;2023-02-01T12:17:46;9.05;;;2.28;;
35835;SDS011;21955;50.580;7.228;2023-02-01T12:20:22;11.55;;;2.20;;
35835;SDS011;21955;50.580;7.228;2023-02-01T12:23:14;11.30;;;2.80;;
35835;SDS011;21955;50.580;7.228;2023-02-01T12:25:53;10.05;;;2.15;;
35835;SDS011;21955;50.580;7.228;2023-02-01T12:28:36;11.95;;;2.35;;
35835;SDS011;21955;50.580;7.228;2023-02-01T12:31:11;11.27;;;2.50;;
35835;SDS011;21955;50.580;7.228;2023-02-01T12:33:48;15.63;;;3.00;;
35835;SDS011;21955;50.580;7.228;2023-02-01T12:36:18;16.80;;;3.88;;
35835;SDS011;21955;50.580;7.228;2023-02-01T12:38:51;11.45;;;3.03;;
35835;SDS011;21955;50.580;7.228;2023-02-01T12:41:24;9.40;;;2.50;;
35835;SDS011;21955;50.580;7.228;2023-02-01T12:43:53;10.15;;;2.45;;
35835;SDS011;21955;50.580;7.228;2023-02-01T12:46:25;12.52;;;2.60;;
35835;SDS011;21955;50.580;7.228;2023-02-01T12:48:58;11.50;;;2.33;;
35835;SDS011;21955;50.580;7.228;2023-02-01T12:51:31;15.38;;;3.00;;
35835;SDS011;21955;50.580;7.228;2023-02-01T12:54:02;10.38;;;2.60;;
35835;SDS011;21955;50.580;7.228;2023-02-01T12:56:32;12.40;;;3.08;;
35835;SDS011;21955;50.580;7.228;2023-02-01T12:59:02;12.02;;;2.65;;
35835;SDS011;21955;50.580;7.228;2023-02-01T13:01:36;12.60;;;2.42;;
35835;SDS011;21955;50.580;7.228;2023-02-01T13:04:08;11.63;;;2.43;;
35835;SDS011;21955;50.580;7.228;2023-02-01T13:06:38;10.68;;;2.30;;
35835;SDS011;21955;50.580;7.228;2023-02-01T13:09:09;11.77;;;2.20;;
35835;SDS011;21955;50.580;7.228;2023-02-01T13:11:39;8.63;;;2.05;;
35835;SDS011;21955;50.580;7.228;2023-02-01T13:14:10;10.10;;;2.17;;
35835;SDS011;21955;50.580;7.228;2023-02-01T13:16:41;11.38;;;2.45;;
35835;SDS011;21955;50.580;7.228;2023-02-01T13:19:14;7.60;;;2.13;;
35835;SDS011;21955;50.580;7.228;2023-02-01T13:21:45;11.83;;;2.30;;
35835;SDS011;21955;50.580;7.228;2023-02-01T13:24:19;8.83;;;2.10;;
35835;SDS011;21955;50.580;7.228;2023-02-01T13:27:04;13.57;;;3.17;;
35835;SDS011;21955;50.580;7.228;2023-02-01T13:29:32;11.07;;;2.58;;
35835;SDS011;21955;50.580;7.228;2023-02-01T13:35:01;19.42;;;4.03;;
35835;SDS011;21955;50.580;7.228;2023-02-01T13:40:18;10.55;;;2.65;;
35835;SDS011;21955;50.580;7.228;2023-02-01T13:42:50;11.27;;;2.60;;
35835;SDS011;21955;50.580;7.228;2023-02-01T13:45:19;10.18;;;2.13;;
35835;SDS011;21955;50.580;7.228;2023-02-01T13:47:48;10.38;;;2.25;;
35835;SDS011;21955;50.580;7.228;2023-02-01T13:50:21;8.40;;;2.05;;
35835;SDS011;21955;50.580;7.228;2023-02-01T13:52:51;11.00;;;2.13;;
35835;SDS011;21955;50.580;7.228;2023-02-01T13:55:35;11.77;;;2.05;;
35835;SDS011;21955;50.580;7.228;2023-02-01T13:58:18;10.55;;;1.95;;
35835;SDS011;21955;50.580;7.228;2023-02-01T14:00:46;7.68;;;1.90;;
35835;SDS011;21955;50.580;7.228;2023-02-01T14:03:15;8.63;;;2.07;;
35835;SDS011;21955;50.580;7.228;2023-02-01T14:08:41;8.98;;;1.90;;
35835;SDS011;21955;50.580;7.228;2023-02-01T14:13:56;10.53;;;2.10;;
35835;SDS011;21955;50.580;7.228;2023-02-01T14:16:34;7.70;;;1.90;;
35835;SDS011;21955;50.580;7.228;2023-02-01T14:19:03;12.00;;;2.10;;
35835;SDS011;21955;50.580;7.228;2023-02-01T14:21:35;11.15;;;2.03;;
35835;SDS011;21955;50.580;7.228;2023-02-01T14:24:16;11.37;;;2.23;;
35835;SDS011;21955;50.580;7.228;2023-02-01T14:26:46;10.43;;;2.25;;
35835;SDS011;21955;50.580;7.228;2023-02-01T14:29:26;8.65;;;2.28;;
35835;SDS011;21955;50.580;7.228;2023-02-01T14:32:02;11.70;;;2.45;;
35835;SDS011;21955;50.580;7.228;2023-02-01T14:34:33;11.52;;;2.25;;
35835;SDS011;21955;50.580;7.228;2023-02-01T14:37:03;10.93;;;2.60;;
35835;SDS011;21955;50.580;7.228;2023-02-01T14:39:52;9.18;;;2.10;;
35835;SDS011;21955;50.580;7.228;2023-02-01T14:42:22;10.25;;;1.98;;
35835;SDS011;21955;50.580;7.228;2023-02-01T14:44:52;9.93;;;2.15;;
35835;SDS011;21955;50.580;7.228;2023-02-01T14:50:03;10.55;;;2.17;;
35835;SDS011;21955;50.580;7.228;2023-02-01T14:52:32;7.80;;;1.80;;
35835;SDS011;21955;50.580;7.228;2023-02-01T14:55:04;12.23;;;2.55;;
35835;SDS011;21955;50.580;7.228;2023-02-01T14:57:33;8.93;;;2.10;;
35835;SDS011;21955;50.580;7.228;2023-02-01T15:00:05;8.55;;;2.13;;
35835;SDS011;21955;50.580;7.228;2023-02-01T15:02:34;10.10;;;2.33;;
35835;SDS011;21955;50.580;7.228;2023-02-01T15:05:12;10.98;;;2.90;;
35835;SDS011;21955;50.580;7.228;2023-02-01T15:07:42;12.10;;;2.13;;
35835;SDS011;21955;50.580;7.228;2023-02-01T15:10:11;8.70;;;2.00;;
35835;SDS011;21955;50.580;7.228;2023-02-01T15:12:40;11.30;;;2.27;;
35835;SDS011;21955;50.580;7.228;2023-02-01T15:15:12;12.15;;;2.13;;
35835;SDS011;21955;50.580;7.228;2023-02-01T15:17:41;9.52;;;2.50;;
35835;SDS011;21955;50.580;7.228;2023-02-01T15:20:12;9.82;;;1.90;;
35835;SDS011;21955;50.580;7.228;2023-02-01T15:22:40;10.55;;;1.98;;